createdAt,value
2022-07-31T00:00:12.582Z,20.20
2022-07-31T00:02:39.077Z,22.60
2022-07-31T00:05:05.601Z,23.17
2022-07-31T00:07:32.018Z,28.60
2022-07-31T00:09:58.417Z,13.40
2022-07-31T00:12:24.818Z,18.77
2022-07-31T00:14:51.247Z,19.90
2022-07-31T00:17:17.699Z,22.33
2022-07-31T00:19:44.119Z,15.30
2022-07-31T00:22:11.044Z,18.87
2022-07-31T00:24:37.452Z,25.00
2022-07-31T00:27:04.907Z,17.60
2022-07-31T00:29:31.802Z,14.03
2022-07-31T00:31:58.215Z,17.27
2022-07-31T00:34:24.615Z,14.73
2022-07-31T00:36:51.074Z,16.47
2022-07-31T00:39:17.463Z,18.67
2022-07-31T00:41:44.483Z,18.07
2022-07-31T00:44:12.381Z,16.20
2022-07-31T00:46:40.152Z,16.77
2022-07-31T00:49:10.463Z,19.27
2022-07-31T00:51:38.012Z,20.83
2022-07-31T00:54:04.703Z,20.23
2022-07-31T00:56:31.083Z,17.93
2022-07-31T00:58:57.490Z,19.40
2022-07-31T01:01:24.012Z,17.07
2022-07-31T01:03:50.855Z,16.27
2022-07-31T01:06:17.230Z,18.07
2022-07-31T01:08:43.617Z,14.50
2022-07-31T01:11:19.502Z,14.93
2022-07-31T01:13:51.094Z,18.00
2022-07-31T01:16:18.414Z,15.50
2022-07-31T01:18:45.120Z,19.77
2022-07-31T01:21:13.611Z,17.93
2022-07-31T01:23:55.510Z,16.23
2022-07-31T01:26:31.992Z,19.33
2022-07-31T01:29:13.606Z,14.50
2022-07-31T01:31:42.690Z,20.63
2022-07-31T01:34:14.663Z,20.20
2022-07-31T01:36:44.551Z,15.53
2022-07-31T01:39:11.606Z,14.60
2022-07-31T01:41:40.591Z,15.10
2022-07-31T01:44:07.910Z,13.23
2022-07-31T01:46:41.898Z,17.63
2022-07-31T01:49:09.942Z,18.10
2022-07-31T01:51:39.133Z,20.03
2022-07-31T01:54:05.874Z,17.93
2022-07-31T01:56:33.007Z,20.90
2022-07-31T01:59:00.531Z,16.20
2022-07-31T02:01:28.682Z,22.83
2022-07-31T02:03:56.887Z,13.50
2022-07-31T02:06:27.174Z,20.60
2022-07-31T02:08:54.875Z,12.23
2022-07-31T02:11:21.472Z,13.50
2022-07-31T02:13:48.511Z,15.70
2022-07-31T02:16:16.427Z,18.27
2022-07-31T02:18:43.091Z,17.30
2022-07-31T02:21:09.683Z,23.87
2022-07-31T02:23:36.788Z,14.20
2022-07-31T02:26:05.154Z,14.07
2022-07-31T02:28:32.306Z,15.03
2022-07-31T02:30:58.962Z,15.47
2022-07-31T02:33:26.371Z,18.17
2022-07-31T02:35:55.443Z,19.97
2022-07-31T02:38:23.970Z,15.27
2022-07-31T02:40:51.058Z,19.67
2022-07-31T02:43:17.940Z,21.93
2022-07-31T02:45:44.502Z,17.90
2022-07-31T02:48:10.875Z,15.10
2022-07-31T02:50:38.058Z,18.63
2022-07-31T02:53:04.682Z,18.30
2022-07-31T02:55:31.233Z,15.17
2022-07-31T02:57:57.741Z,14.00
2022-07-31T03:00:27.020Z,18.60
2022-07-31T03:02:54.886Z,13.60
2022-07-31T03:05:21.870Z,18.37
2022-07-31T03:07:48.676Z,14.70
2022-07-31T03:10:15.370Z,16.33
2022-07-31T03:12:46.341Z,16.10
2022-07-31T03:15:14.260Z,20.43
2022-07-31T03:17:41.890Z,16.50
2022-07-31T03:20:08.915Z,13.30
2022-07-31T03:22:35.773Z,15.83
2022-07-31T03:25:03.391Z,17.73
2022-07-31T03:27:30.034Z,14.43
2022-07-31T03:29:56.403Z,14.77
2022-07-31T03:32:22.827Z,17.87
2022-07-31T03:34:49.231Z,19.57
2022-07-31T03:37:15.624Z,15.93
2022-07-31T03:39:42.001Z,17.77
2022-07-31T03:42:13.002Z,19.73
2022-07-31T03:44:45.895Z,16.73
2022-07-31T03:47:12.467Z,19.40
2022-07-31T03:49:39.652Z,16.43
2022-07-31T03:52:11.735Z,17.37
2022-07-31T03:54:38.755Z,18.17
2022-07-31T03:57:05.570Z,16.33
2022-07-31T03:59:37.200Z,20.30
2022-07-31T04:02:09.734Z,19.13
2022-07-31T04:04:37.728Z,18.37
2022-07-31T04:07:04.851Z,21.17
2022-07-31T04:09:31.474Z,16.47
2022-07-31T04:11:57.914Z,17.53
2022-07-31T04:14:24.379Z,20.33
2022-07-31T04:16:50.800Z,16.03
2022-07-31T04:19:17.203Z,18.43
2022-07-31T04:21:43.593Z,16.40
2022-07-31T04:24:11.617Z,16.00
2022-07-31T04:26:38.007Z,14.27
2022-07-31T04:29:04.678Z,18.07
2022-07-31T04:31:31.064Z,12.20
2022-07-31T04:33:57.425Z,13.60
2022-07-31T04:36:30.589Z,13.17
2022-07-31T04:38:57.196Z,16.63
2022-07-31T04:41:23.644Z,15.73
2022-07-31T04:43:50.037Z,18.13
2022-07-31T04:46:17.469Z,14.47
2022-07-31T04:48:44.999Z,19.77
2022-07-31T04:51:29.653Z,21.17
2022-07-31T04:53:56.032Z,18.67
2022-07-31T04:56:36.003Z,19.60
2022-07-31T04:59:04.753Z,19.07
2022-07-31T05:01:31.275Z,17.47
2022-07-31T05:03:57.858Z,18.83
2022-07-31T05:06:32.255Z,17.67
2022-07-31T05:08:58.633Z,19.97
2022-07-31T05:11:25.141Z,17.07
2022-07-31T05:13:52.301Z,15.70
2022-07-31T05:16:19.637Z,14.77
2022-07-31T05:18:46.330Z,19.50
2022-07-31T05:21:13.502Z,19.80
2022-07-31T05:23:40.167Z,18.93
2022-07-31T05:26:06.639Z,22.97
2022-07-31T05:28:33.403Z,15.73
2022-07-31T05:30:59.983Z,19.30
2022-07-31T05:33:26.437Z,14.73
2022-07-31T05:35:52.842Z,14.37
2022-07-31T05:38:19.213Z,19.13
2022-07-31T05:40:45.662Z,16.83
2022-07-31T05:43:12.078Z,15.47
2022-07-31T05:45:38.694Z,20.20
2022-07-31T05:48:05.499Z,18.40
2022-07-31T05:50:31.938Z,18.93
2022-07-31T05:52:58.316Z,18.97
2022-07-31T05:55:24.713Z,19.33
2022-07-31T05:57:51.614Z,19.83
2022-07-31T06:00:18.956Z,17.67
2022-07-31T06:02:45.603Z,14.67
2022-07-31T06:05:12.026Z,18.73
2022-07-31T06:07:38.520Z,19.23
2022-07-31T06:10:05.097Z,17.47
2022-07-31T06:12:31.546Z,19.20
2022-07-31T06:14:58.114Z,21.93
2022-07-31T06:17:24.586Z,21.60
2022-07-31T06:20:07.341Z,15.17
2022-07-31T06:22:33.794Z,13.33
2022-07-31T06:25:00.187Z,14.47
2022-07-31T06:27:33.872Z,12.70
2022-07-31T06:30:01.621Z,12.57
2022-07-31T06:32:28.001Z,10.23
2022-07-31T06:34:54.405Z,13.20
2022-07-31T06:37:21.019Z,9.37
2022-07-31T06:39:55.805Z,12.03
2022-07-31T06:42:23.727Z,11.53
2022-07-31T06:44:50.522Z,8.57
2022-07-31T06:47:17.555Z,9.23
2022-07-31T06:49:44.077Z,8.37
2022-07-31T06:52:10.625Z,11.07
2022-07-31T06:54:37.206Z,23.80
2022-07-31T06:57:03.907Z,10.10
2022-07-31T06:59:40.088Z,10.53
2022-07-31T07:02:07.723Z,10.87
2022-07-31T07:05:05.346Z,9.10
2022-07-31T07:07:20.906Z,7.47
2022-07-31T07:09:47.270Z,8.57
2022-07-31T07:12:16.628Z,9.10
2022-07-31T07:14:43.525Z,7.27
2022-07-31T07:17:09.968Z,7.50
2022-07-31T07:19:39.337Z,7.47
2022-07-31T07:22:06.114Z,8.80
2022-07-31T07:24:32.931Z,10.13
2022-07-31T07:26:59.313Z,10.13
2022-07-31T07:29:25.750Z,7.77
2022-07-31T07:31:52.179Z,10.40
2022-07-31T07:34:18.561Z,23.93
2022-07-31T07:36:45.007Z,12.03
2022-07-31T07:39:11.529Z,16.65
2022-07-31T07:41:38.732Z,16.27
2022-07-31T07:44:06.500Z,11.27
2022-07-31T07:46:32.900Z,11.43
2022-07-31T07:48:59.427Z,10.50
2022-07-31T07:51:25.913Z,11.53
2022-07-31T07:53:52.411Z,9.33
2022-07-31T07:56:18.885Z,14.20
2022-07-31T07:58:45.394Z,11.30
2022-07-31T08:01:12.225Z,9.43
2022-07-31T08:03:49.763Z,8.35
2022-07-31T08:06:18.097Z,8.27
2022-07-31T08:08:44.549Z,9.10
2022-07-31T08:11:10.993Z,12.23
2022-07-31T08:13:49.332Z,6.95
2022-07-31T08:16:16.908Z,11.87
2022-07-31T08:18:43.384Z,15.97
2022-07-31T08:21:09.820Z,6.60
2022-07-31T08:23:36.247Z,9.90
2022-07-31T08:26:04.569Z,9.30
2022-07-31T08:28:33.468Z,8.47
2022-07-31T08:31:00.197Z,8.37
2022-07-31T08:33:26.715Z,7.85
2022-07-31T08:35:53.159Z,7.88
2022-07-31T08:38:19.818Z,8.48
2022-07-31T08:40:46.867Z,9.17
2022-07-31T08:46:02.749Z,7.10
2022-07-31T08:48:30.939Z,9.18
2022-07-31T08:50:57.480Z,9.07
2022-07-31T08:53:25.089Z,21.58
2022-07-31T08:55:56.872Z,10.15
2022-07-31T08:58:24.760Z,12.65
2022-07-31T09:00:51.521Z,11.70
2022-07-31T09:03:18.095Z,11.88
2022-07-31T09:05:44.468Z,6.30
2022-07-31T09:08:12.393Z,7.25
2022-07-31T09:10:46.299Z,7.25
2022-07-31T09:13:17.969Z,7.03
2022-07-31T09:15:44.561Z,7.68
2022-07-31T09:18:18.809Z,6.20
2022-07-31T09:20:56.216Z,5.43
2022-07-31T09:23:23.355Z,6.45
2022-07-31T09:25:58.698Z,9.57
2022-07-31T09:28:36.531Z,6.43
2022-07-31T09:31:03.342Z,8.05
2022-07-31T09:33:30.470Z,6.47
2022-07-31T09:35:57.628Z,9.60
2022-07-31T09:38:29.967Z,5.30
2022-07-31T09:40:57.810Z,7.22
2022-07-31T09:43:25.735Z,6.10
2022-07-31T09:45:59.698Z,9.23
2022-07-31T09:48:28.902Z,3.45
2022-07-31T09:51:05.827Z,5.95
2022-07-31T09:53:43.746Z,7.50
2022-07-31T09:56:12.684Z,25.65
2022-07-31T09:58:40.648Z,15.68
2022-07-31T10:07:42.986Z,4.38
2022-07-31T10:10:10.140Z,5.97
2022-07-31T10:12:40.833Z,6.43
2022-07-31T10:15:15.146Z,3.95
2022-07-31T10:17:49.547Z,10.15
2022-07-31T10:20:18.258Z,6.97
2022-07-31T10:22:46.987Z,6.00
2022-07-31T10:25:19.451Z,6.22
2022-07-31T10:27:46.164Z,5.10
2022-07-31T10:30:16.121Z,4.85
2022-07-31T10:32:45.823Z,7.20
2022-07-31T10:35:12.712Z,7.57
2022-07-31T10:37:39.437Z,4.18
2022-07-31T10:40:29.515Z,4.13
2022-07-31T10:43:01.939Z,5.72
2022-07-31T10:45:32.302Z,4.55
2022-07-31T10:47:59.743Z,5.07
2022-07-31T10:50:27.350Z,4.72
2022-07-31T10:52:58.642Z,4.38
2022-07-31T10:55:27.238Z,3.85
2022-07-31T10:57:56.680Z,4.07
2022-07-31T11:00:28.259Z,5.22
2022-07-31T11:02:56.406Z,4.80
2022-07-31T11:05:28.140Z,5.45
2022-07-31T11:08:01.562Z,8.77
2022-07-31T11:10:28.003Z,3.38
2022-07-31T11:13:01.833Z,8.05
2022-07-31T11:15:28.574Z,4.88
2022-07-31T11:18:22.149Z,2.75
2022-07-31T11:20:46.780Z,4.88
2022-07-31T11:23:17.652Z,5.97
2022-07-31T11:25:45.634Z,3.78
2022-07-31T11:28:18.715Z,7.68
2022-07-31T11:30:52.859Z,4.20
2022-07-31T11:33:29.142Z,4.35
2022-07-31T11:36:04.891Z,4.40
2022-07-31T11:38:31.364Z,4.93
2022-07-31T11:40:57.928Z,5.82
2022-07-31T11:43:26.244Z,3.35
2022-07-31T11:45:53.671Z,5.57
2022-07-31T11:48:21.757Z,3.85
2022-07-31T11:50:49.101Z,4.70
2022-07-31T11:53:15.919Z,6.15
2022-07-31T11:55:46.725Z,5.68
2022-07-31T11:58:13.774Z,3.53
2022-07-31T12:00:45.840Z,5.25
2022-07-31T12:03:12.435Z,5.80
2022-07-31T12:05:46.501Z,5.70
2022-07-31T12:08:13.466Z,3.63
2022-07-31T12:10:40.106Z,4.93
2022-07-31T12:13:15.382Z,3.97
2022-07-31T12:15:53.151Z,4.78
2022-07-31T12:18:19.567Z,4.35
2022-07-31T12:21:12.220Z,8.13
2022-07-31T12:23:41.378Z,5.30
2022-07-31T12:26:10.547Z,3.55
2022-07-31T12:28:37.019Z,5.95
2022-07-31T12:31:03.608Z,3.30
2022-07-31T12:33:39.498Z,12.57
2022-07-31T12:36:12.906Z,4.82
2022-07-31T12:38:45.290Z,6.72
2022-07-31T12:41:14.977Z,3.22
2022-07-31T12:43:50.870Z,4.45
2022-07-31T12:46:18.521Z,6.80
2022-07-31T12:48:46.279Z,4.40
2022-07-31T12:51:13.251Z,7.28
2022-07-31T12:53:39.748Z,5.28
2022-07-31T12:56:10.511Z,2.35
2022-07-31T12:58:36.878Z,4.20
2022-07-31T13:01:03.275Z,8.15
2022-07-31T13:03:45.459Z,6.35
2022-07-31T13:06:13.252Z,5.35
2022-07-31T13:08:39.704Z,6.05
2022-07-31T13:11:06.143Z,6.60
2022-07-31T13:13:32.557Z,14.52
2022-07-31T13:15:59.043Z,9.13
2022-07-31T13:18:25.475Z,9.98
2022-07-31T13:20:51.851Z,7.43
2022-07-31T13:23:18.267Z,7.53
2022-07-31T13:25:44.698Z,3.20
2022-07-31T13:28:11.169Z,5.25
2022-07-31T13:30:37.573Z,5.20
2022-07-31T13:33:04.062Z,5.95
2022-07-31T13:35:31.775Z,4.72
2022-07-31T13:37:58.236Z,3.65
2022-07-31T13:40:43.518Z,4.45
2022-07-31T13:43:09.904Z,6.50
2022-07-31T13:45:36.332Z,4.93
2022-07-31T13:48:06.878Z,4.85
2022-07-31T13:50:35.127Z,5.65
2022-07-31T13:53:01.684Z,3.65
2022-07-31T13:55:28.137Z,7.72
2022-07-31T13:57:57.085Z,6.45
2022-07-31T14:00:26.493Z,6.35
2022-07-31T14:02:52.904Z,4.93
2022-07-31T14:05:19.335Z,4.50
2022-07-31T14:07:51.593Z,3.85
2022-07-31T14:10:20.642Z,4.00
2022-07-31T14:12:47.376Z,6.55
2022-07-31T14:15:13.812Z,5.90
2022-07-31T14:17:40.344Z,7.35
2022-07-31T14:20:06.937Z,4.00
2022-07-31T14:22:33.349Z,4.90
2022-07-31T14:24:59.863Z,4.57
2022-07-31T14:27:26.249Z,9.05
2022-07-31T14:29:52.698Z,6.68
2022-07-31T14:32:19.740Z,7.95
2022-07-31T14:34:46.266Z,4.85
2022-07-31T14:37:12.682Z,5.28
2022-07-31T14:39:42.801Z,6.57
2022-07-31T14:42:09.869Z,6.10
2022-07-31T14:44:36.948Z,8.88
2022-07-31T14:47:03.824Z,7.22
2022-07-31T14:50:06.836Z,7.32
2022-07-31T14:52:17.615Z,4.00
2022-07-31T14:54:44.049Z,3.97
2022-07-31T14:57:10.837Z,7.00
2022-07-31T14:59:37.221Z,8.68
2022-07-31T15:02:03.602Z,9.98
2022-07-31T15:04:29.985Z,2.58
2022-07-31T15:07:13.022Z,5.82
2022-07-31T15:09:42.821Z,7.38
2022-07-31T15:12:09.389Z,6.70
2022-07-31T15:14:35.761Z,9.93
2022-07-31T15:17:02.335Z,7.82
2022-07-31T15:19:28.874Z,6.18
2022-07-31T15:22:10.141Z,6.37
2022-07-31T15:24:48.152Z,9.17
2022-07-31T15:27:15.866Z,8.33
2022-07-31T15:30:00.210Z,11.47
2022-07-31T15:32:29.534Z,20.00
2022-07-31T15:34:55.966Z,9.77
2022-07-31T15:37:22.370Z,17.70
2022-07-31T15:40:01.609Z,10.50
2022-07-31T15:42:30.319Z,14.67
2022-07-31T15:44:56.729Z,12.13
2022-07-31T15:47:23.162Z,11.37
2022-07-31T15:49:49.554Z,15.87
2022-07-31T15:52:19.284Z,14.87
2022-07-31T15:54:46.514Z,13.53
2022-07-31T15:57:13.533Z,14.00
2022-07-31T15:59:40.068Z,13.67
2022-07-31T16:02:07.219Z,10.33
2022-07-31T16:04:34.791Z,15.43
2022-07-31T16:08:27.062Z,15.13
2022-07-31T16:10:02.654Z,12.40
2022-07-31T16:12:34.782Z,10.73
2022-07-31T16:15:01.208Z,11.10
2022-07-31T16:17:40.843Z,14.73
2022-07-31T16:20:08.674Z,10.50
2022-07-31T16:22:38.831Z,14.07
2022-07-31T16:25:06.005Z,13.60
2022-07-31T16:27:32.469Z,14.67
2022-07-31T16:30:01.415Z,14.07
2022-07-31T16:32:28.911Z,15.80
2022-07-31T16:35:00.195Z,17.10
2022-07-31T16:37:51.164Z,12.40
2022-07-31T16:40:29.790Z,17.07
2022-07-31T16:43:02.012Z,13.83
2022-07-31T16:45:29.694Z,10.37
2022-07-31T16:47:56.352Z,13.40
2022-07-31T16:50:22.815Z,11.40
2022-07-31T16:52:52.598Z,10.87
2022-07-31T16:55:21.275Z,12.50
2022-07-31T16:58:11.086Z,13.83
2022-07-31T17:00:38.254Z,13.43
2022-07-31T17:03:04.847Z,14.43
2022-07-31T17:05:31.229Z,11.63
2022-07-31T17:07:57.623Z,12.50
2022-07-31T17:10:24.063Z,12.23
2022-07-31T17:12:52.592Z,12.73
2022-07-31T17:15:19.107Z,19.47
2022-07-31T17:17:45.576Z,16.70
2022-07-31T17:20:13.018Z,21.17
2022-07-31T17:22:41.448Z,17.00
2022-07-31T17:25:11.866Z,15.90
2022-07-31T17:27:38.305Z,16.80
2022-07-31T17:30:05.039Z,14.57
2022-07-31T17:32:32.455Z,16.73
2022-07-31T17:34:58.869Z,15.60
2022-07-31T17:37:25.351Z,15.43
2022-07-31T17:39:56.282Z,13.93
2022-07-31T17:42:24.550Z,17.93
2022-07-31T17:44:55.013Z,34.73
2022-07-31T17:47:22.543Z,26.23
2022-07-31T17:49:48.983Z,17.63
2022-07-31T17:52:15.479Z,20.63
2022-07-31T17:54:41.882Z,20.07
2022-07-31T17:57:08.302Z,18.23
2022-07-31T17:59:35.223Z,25.97
2022-07-31T18:02:03.660Z,23.90
2022-07-31T18:04:31.568Z,27.17
2022-07-31T18:06:58.691Z,25.10
2022-07-31T18:09:25.487Z,25.83
2022-07-31T18:11:52.806Z,20.67
2022-07-31T18:14:19.459Z,25.37
2022-07-31T18:16:46.603Z,24.07
2022-07-31T18:19:13.336Z,25.23
2022-07-31T18:21:39.870Z,26.57
2022-07-31T18:24:06.633Z,23.90
2022-07-31T18:26:35.233Z,24.03
2022-07-31T18:29:01.869Z,29.43
2022-07-31T18:31:34.906Z,26.30
2022-07-31T18:34:02.682Z,27.87
2022-07-31T18:36:29.153Z,25.77
2022-07-31T18:38:55.547Z,27.30
2022-07-31T18:41:21.970Z,26.83
2022-07-31T18:43:48.413Z,25.77
2022-07-31T18:46:15.196Z,28.07
2022-07-31T18:48:41.594Z,23.97
2022-07-31T18:51:08.406Z,27.00
2022-07-31T18:53:34.899Z,24.17
2022-07-31T18:56:01.347Z,28.17
2022-07-31T18:58:27.773Z,24.27
2022-07-31T19:00:55.666Z,29.83
2022-07-31T19:03:23.589Z,25.47
2022-07-31T19:05:52.304Z,30.17
2022-07-31T19:08:19.350Z,29.80
2022-07-31T19:10:45.793Z,31.87
2022-07-31T19:13:18.823Z,28.90
2022-07-31T19:15:46.878Z,34.43
2022-07-31T19:18:14.173Z,32.40
2022-07-31T19:20:56.165Z,24.87
2022-07-31T19:23:27.004Z,18.60
2022-07-31T19:26:02.677Z,16.80
2022-07-31T19:28:30.994Z,16.80
2022-07-31T19:30:57.565Z,18.20
2022-07-31T19:33:24.024Z,17.73
2022-07-31T19:35:54.022Z,18.27
2022-07-31T19:38:25.186Z,17.23
2022-07-31T19:40:51.730Z,17.33
2022-07-31T19:43:20.254Z,17.97
2022-07-31T19:46:09.537Z,21.20
2022-07-31T19:48:33.573Z,19.43
2022-07-31T19:50:59.970Z,18.07
2022-07-31T19:53:26.346Z,19.57
2022-07-31T19:55:52.720Z,16.27
2022-07-31T19:58:19.956Z,17.10
2022-07-31T20:00:46.861Z,18.63
2022-07-31T20:03:13.386Z,20.93
2022-07-31T20:05:39.911Z,17.37
2022-07-31T20:08:06.337Z,17.13
2022-07-31T20:10:32.734Z,24.63
2022-07-31T20:12:59.117Z,15.60
2022-07-31T20:15:25.515Z,11.40
2022-07-31T20:17:52.481Z,12.47
2022-07-31T20:20:18.899Z,11.50
2022-07-31T20:22:45.335Z,13.20
2022-07-31T20:25:12.165Z,11.97
2022-07-31T20:27:47.147Z,10.93
2022-07-31T20:30:13.581Z,11.10
2022-07-31T20:32:48.395Z,11.03
2022-07-31T20:35:46.921Z,9.97
2022-07-31T20:38:02.343Z,10.30
2022-07-31T20:40:28.973Z,8.93
2022-07-31T20:42:55.392Z,9.53
2022-07-31T20:45:22.350Z,8.30
2022-07-31T20:47:48.767Z,8.93
2022-07-31T20:50:15.158Z,7.73
2022-07-31T20:52:46.900Z,9.37
2022-07-31T20:55:14.990Z,10.60
2022-07-31T20:57:41.489Z,9.27
2022-07-31T21:00:08.791Z,11.13
2022-07-31T21:02:35.269Z,11.07
2022-07-31T21:05:02.332Z,11.40
2022-07-31T21:07:30.249Z,10.83
2022-07-31T21:09:56.934Z,10.90
2022-07-31T21:12:26.990Z,12.83
2022-07-31T21:14:55.943Z,14.83
2022-07-31T21:17:22.372Z,11.47
2022-07-31T21:19:48.770Z,13.20
2022-07-31T21:22:15.191Z,12.90
2022-07-31T21:24:41.752Z,11.43
2022-07-31T21:27:09.567Z,13.37
2022-07-31T21:29:36.091Z,12.87
2022-07-31T21:32:02.921Z,13.07
2022-07-31T21:34:29.666Z,11.23
2022-07-31T21:36:56.214Z,12.07
2022-07-31T21:39:26.791Z,14.43
2022-07-31T21:41:53.436Z,13.50
2022-07-31T21:44:19.966Z,13.70
2022-07-31T21:46:51.893Z,14.17
2022-07-31T21:49:20.332Z,12.67
2022-07-31T21:51:46.946Z,15.23
2022-07-31T21:54:15.515Z,15.13
2022-07-31T21:56:42.141Z,14.87
2022-07-31T21:59:08.496Z,14.13
2022-07-31T22:01:35.287Z,15.90
2022-07-31T22:04:01.691Z,14.80
2022-07-31T22:06:46.705Z,16.23
2022-07-31T22:09:13.094Z,16.67
2022-07-31T22:11:43.156Z,14.97
2022-07-31T22:14:28.320Z,18.67
2022-07-31T22:16:54.750Z,16.50
2022-07-31T22:19:21.227Z,21.93
2022-07-31T22:21:47.761Z,17.63
2022-07-31T22:24:14.335Z,18.00
2022-07-31T22:27:00.766Z,20.53
2022-07-31T22:29:27.560Z,21.07
2022-07-31T22:31:54.160Z,22.00
2022-07-31T22:34:37.566Z,22.53
2022-07-31T22:37:05.122Z,18.17
2022-07-31T22:39:32.042Z,19.07
2022-07-31T22:42:00.475Z,22.87
2022-07-31T22:44:27.237Z,20.60
2022-07-31T22:46:54.360Z,19.73
2022-07-31T22:49:21.067Z,20.87
2022-07-31T22:51:47.495Z,19.80
2022-07-31T22:54:13.924Z,18.30
2022-07-31T22:56:40.358Z,18.13
2022-07-31T22:59:08.839Z,20.10
2022-07-31T23:01:35.235Z,21.30
2022-07-31T23:04:01.593Z,19.83
2022-07-31T23:06:31.450Z,18.13
2022-07-31T23:08:59.158Z,19.63
2022-07-31T23:11:25.649Z,18.47
2022-07-31T23:13:52.098Z,20.63
2022-07-31T23:16:18.490Z,19.93
2022-07-31T23:18:44.889Z,18.63
2022-07-31T23:21:11.399Z,19.27
2022-07-31T23:23:37.842Z,17.23
2022-07-31T23:26:04.279Z,16.40
2022-07-31T23:28:30.654Z,20.27
2022-07-31T23:30:57.076Z,17.90
2022-07-31T23:33:23.461Z,17.97
2022-07-31T23:35:49.847Z,18.10
2022-07-31T23:38:16.222Z,16.93
2022-07-31T23:40:42.614Z,18.63
2022-07-31T23:43:08.978Z,19.87
2022-07-31T23:45:36.170Z,19.30
2022-07-31T23:48:03.594Z,21.00
2022-07-31T23:50:31.786Z,17.70
2022-07-31T23:52:58.209Z,19.20
2022-07-31T23:55:24.591Z,18.03
2022-07-31T23:57:50.963Z,18.73
